sensor_id;sensor_type;location;lat;lon;timestamp;pressure;altitude;pressure_sealevel;temperature;humidity
50434;BME280;36361;38.954;-9.002;2022-07-21T00:00:09;100747.78;;;21.89;66.98
50434;BME280;36361;38.954;-9.002;2022-07-21T00:01:10;100753.25;;;21.99;66.42
50434;BME280;36361;38.954;-9.002;2022-07-21T00:02:11;100761.84;;;21.98;66.58
50434;BME280;36361;38.954;-9.002;2022-07-21T00:03:12;100755.13;;;22.09;66.53
50434;BME280;36361;38.954;-9.002;2022-07-21T00:04:12;100760.28;;;22.21;65.69
50434;BME280;36361;38.954;-9.002;2022-07-21T00:05:15;100760.03;;;22.22;64.96
50434;BME280;36361;38.954;-9.002;2022-07-21T00:06:17;100758.22;;;22.36;64.78
50434;BME280;36361;38.954;-9.002;2022-07-21T00:07:17;100767.75;;;22.25;64.64
50434;BME280;36361;38.954;-9.002;2022-07-21T00:08:18;100762.97;;;22.31;64.33
50434;BME280;36361;38.954;-9.002;2022-07-21T00:09:19;100764.19;;;22.20;64.58
50434;BME280;36361;38.954;-9.002;2022-07-21T00:10:22;100760.03;;;21.83;65.77
50434;BME280;36361;38.954;-9.002;2022-07-21T00:11:23;100758.63;;;21.85;65.88
50434;BME280;36361;38.954;-9.002;2022-07-21T00:12:23;100763.66;;;21.78;66.41
50434;BME280;36361;38.954;-9.002;2022-07-21T00:13:24;100763.41;;;21.75;66.00
50434;BME280;36361;38.954;-9.002;2022-07-21T00:14:25;100764.19;;;21.85;65.71
50434;BME280;36361;38.954;-9.002;2022-07-21T00:15:27;100755.06;;;21.80;66.03
50434;BME280;36361;38.954;-9.002;2022-07-21T00:16:28;100764.34;;;21.60;66.82
50434;BME280;36361;38.954;-9.002;2022-07-21T00:17:29;100757.47;;;21.92;66.88
50434;BME280;36361;38.954;-9.002;2022-07-21T00:18:30;100753.09;;;21.85;65.85
50434;BME280;36361;38.954;-9.002;2022-07-21T00:19:30;100756.13;;;21.84;65.89
50434;BME280;36361;38.954;-9.002;2022-07-21T00:20:32;100749.34;;;22.05;66.24
50434;BME280;36361;38.954;-9.002;2022-07-21T00:21:32;100756.81;;;22.05;65.78
50434;BME280;36361;38.954;-9.002;2022-07-21T00:22:33;100757.44;;;21.97;65.84
50434;BME280;36361;38.954;-9.002;2022-07-21T00:23:34;100762.19;;;21.91;66.59
50434;BME280;36361;38.954;-9.002;2022-07-21T00:24:35;100755.88;;;21.85;66.45
50434;BME280;36361;38.954;-9.002;2022-07-21T00:25:35;100742.88;;;21.81;66.89
50434;BME280;36361;38.954;-9.002;2022-07-21T00:26:36;100753.34;;;21.89;66.44
50434;BME280;36361;38.954;-9.002;2022-07-21T00:27:37;100744.53;;;21.82;67.05
50434;BME280;36361;38.954;-9.002;2022-07-21T00:28:38;100739.84;;;21.77;67.04
50434;BME280;36361;38.954;-9.002;2022-07-21T00:29:39;100753.72;;;21.72;67.14
50434;BME280;36361;38.954;-9.002;2022-07-21T00:30:39;100748.41;;;21.42;68.20
50434;BME280;36361;38.954;-9.002;2022-07-21T00:31:40;100743.78;;;21.66;68.17
50434;BME280;36361;38.954;-9.002;2022-07-21T00:32:41;100742.06;;;21.75;67.40
50434;BME280;36361;38.954;-9.002;2022-07-21T00:33:42;100742.34;;;21.79;67.37
50434;BME280;36361;38.954;-9.002;2022-07-21T00:34:43;100751.31;;;21.61;68.12
50434;BME280;36361;38.954;-9.002;2022-07-21T00:35:47;100738.38;;;21.51;69.01
50434;BME280;36361;38.954;-9.002;2022-07-21T00:36:48;100747.31;;;21.38;69.56
50434;BME280;36361;38.954;-9.002;2022-07-21T00:37:48;100747.34;;;21.27;70.39
50434;BME280;36361;38.954;-9.002;2022-07-21T00:38:49;100756.78;;;21.32;70.39
50434;BME280;36361;38.954;-9.002;2022-07-21T00:39:50;100751.56;;;21.15;71.29
50434;BME280;36361;38.954;-9.002;2022-07-21T00:40:52;100750.81;;;20.89;72.46
50434;BME280;36361;38.954;-9.002;2022-07-21T00:41:53;100749.06;;;21.13;71.96
50434;BME280;36361;38.954;-9.002;2022-07-21T00:42:54;100744.03;;;21.20;71.54
50434;BME280;36361;38.954;-9.002;2022-07-21T00:43:55;100742.53;;;20.89;72.29
50434;BME280;36361;38.954;-9.002;2022-07-21T00:45:00;100741.28;;;21.20;71.69
50434;BME280;36361;38.954;-9.002;2022-07-21T00:46:01;100737.41;;;21.26;71.36
50434;BME280;36361;38.954;-9.002;2022-07-21T00:47:02;100739.31;;;21.26;70.92
50434;BME280;36361;38.954;-9.002;2022-07-21T00:48:05;100741.84;;;21.22;70.91
50434;BME280;36361;38.954;-9.002;2022-07-21T00:49:06;100739.88;;;21.33;70.44
50434;BME280;36361;38.954;-9.002;2022-07-21T00:50:10;100747.63;;;21.26;70.57
50434;BME280;36361;38.954;-9.002;2022-07-21T00:51:11;100740.19;;;21.26;70.49
50434;BME280;36361;38.954;-9.002;2022-07-21T00:52:12;100745.66;;;21.37;70.49
50434;BME280;36361;38.954;-9.002;2022-07-21T00:53:13;100760.38;;;21.22;71.07
50434;BME280;36361;38.954;-9.002;2022-07-21T00:54:21;100737.94;;;21.34;70.06
50434;BME280;36361;38.954;-9.002;2022-07-21T00:55:22;100750.97;;;21.23;70.80
50434;BME280;36361;38.954;-9.002;2022-07-21T00:56:23;100748.50;;;21.21;70.62
50434;BME280;36361;38.954;-9.002;2022-07-21T00:57:24;100749.03;;;21.23;71.08
50434;BME280;36361;38.954;-9.002;2022-07-21T00:58:25;100746.25;;;21.23;71.17
50434;BME280;36361;38.954;-9.002;2022-07-21T00:59:26;100746.97;;;20.85;72.29
50434;BME280;36361;38.954;-9.002;2022-07-21T01:00:28;100748.91;;;20.84;72.93
50434;BME280;36361;38.954;-9.002;2022-07-21T01:01:29;100741.41;;;20.90;72.69
50434;BME280;36361;38.954;-9.002;2022-07-21T01:02:30;100747.28;;;20.78;73.48
50434;BME280;36361;38.954;-9.002;2022-07-21T01:03:33;100746.75;;;20.71;74.00
50434;BME280;36361;38.954;-9.002;2022-07-21T01:04:34;100745.88;;;20.81;73.94
50434;BME280;36361;38.954;-9.002;2022-07-21T01:05:35;100739.75;;;20.89;73.54
50434;BME280;36361;38.954;-9.002;2022-07-21T01:06:36;100744.72;;;20.92;73.18
50434;BME280;36361;38.954;-9.002;2022-07-21T01:07:37;100743.84;;;21.07;72.92
50434;BME280;36361;38.954;-9.002;2022-07-21T01:08:38;100741.91;;;21.02;73.38
50434;BME280;36361;38.954;-9.002;2022-07-21T01:09:39;100745.22;;;21.09;73.20
50434;BME280;36361;38.954;-9.002;2022-07-21T01:10:40;100740.25;;;21.06;73.54
50434;BME280;36361;38.954;-9.002;2022-07-21T01:11:41;100741.31;;;21.10;73.39
50434;BME280;36361;38.954;-9.002;2022-07-21T01:12:43;100739.91;;;21.18;73.29
50434;BME280;36361;38.954;-9.002;2022-07-21T01:13:44;100737.97;;;21.18;73.22
50434;BME280;36361;38.954;-9.002;2022-07-21T01:14:45;100738.53;;;21.15;73.08
50434;BME280;36361;38.954;-9.002;2022-07-21T01:15:46;100740.81;;;21.03;73.01
50434;BME280;36361;38.954;-9.002;2022-07-21T01:16:47;100738.63;;;20.95;73.55
50434;BME280;36361;38.954;-9.002;2022-07-21T01:17:48;100733.34;;;20.98;73.79
50434;BME280;36361;38.954;-9.002;2022-07-21T01:18:49;100729.41;;;21.15;73.01
50434;BME280;36361;38.954;-9.002;2022-07-21T01:19:51;100728.06;;;21.12;73.38
50434;BME280;36361;38.954;-9.002;2022-07-21T01:20:54;100732.53;;;21.03;74.04
50434;BME280;36361;38.954;-9.002;2022-07-21T01:21:55;100726.13;;;21.13;73.84
50434;BME280;36361;38.954;-9.002;2022-07-21T01:22:55;100728.94;;;20.92;74.38
50434;BME280;36361;38.954;-9.002;2022-07-21T01:23:56;100724.88;;;20.74;75.18
50434;BME280;36361;38.954;-9.002;2022-07-21T01:25:04;100717.34;;;20.95;74.48
50434;BME280;36361;38.954;-9.002;2022-07-21T01:26:05;100718.00;;;20.57;75.61
50434;BME280;36361;38.954;-9.002;2022-07-21T01:27:06;100721.53;;;20.83;75.30
50434;BME280;36361;38.954;-9.002;2022-07-21T01:28:07;100718.28;;;20.60;75.91
50434;BME280;36361;38.954;-9.002;2022-07-21T01:29:08;100723.78;;;20.65;75.91
50434;BME280;36361;38.954;-9.002;2022-07-21T01:30:11;100722.09;;;20.74;75.63
50434;BME280;36361;38.954;-9.002;2022-07-21T01:31:12;100720.16;;;20.80;75.53
50434;BME280;36361;38.954;-9.002;2022-07-21T01:32:13;100714.56;;;20.90;74.89
50434;BME280;36361;38.954;-9.002;2022-07-21T01:33:14;100722.34;;;20.88;74.89
50434;BME280;36361;38.954;-9.002;2022-07-21T01:34:15;100719.88;;;20.87;75.13
50434;BME280;36361;38.954;-9.002;2022-07-21T01:35:16;100720.94;;;20.96;74.65
50434;BME280;36361;38.954;-9.002;2022-07-21T01:36:17;100722.03;;;20.95;74.55
50434;BME280;36361;38.954;-9.002;2022-07-21T01:37:22;100708.38;;;20.49;76.06
50434;BME280;36361;38.954;-9.002;2022-07-21T01:38:26;100706.66;;;20.68;75.64
50434;BME280;36361;38.954;-9.002;2022-07-21T01:39:47;100716.84;;;20.78;75.40
50434;BME280;36361;38.954;-9.002;2022-07-21T01:41:06;100720.16;;;20.80;75.43
50434;BME280;36361;38.954;-9.002;2022-07-21T01:42:26;100711.59;;;20.77;75.75
50434;BME280;36361;38.954;-9.002;2022-07-21T01:43:26;100712.69;;;20.86;75.67
50434;BME280;36361;38.954;-9.002;2022-07-21T01:44:27;100704.09;;;20.82;76.05
50434;BME280;36361;38.954;-9.002;2022-07-21T01:45:28;100709.91;;;20.81;76.44
50434;BME280;36361;38.954;-9.002;2022-07-21T01:46:31;100705.84;;;20.63;76.99
50434;BME280;36361;38.954;-9.002;2022-07-21T01:47:32;100707.16;;;20.86;76.38
50434;BME280;36361;38.954;-9.002;2022-07-21T01:48:33;100705.50;;;20.85;75.97
50434;BME280;36361;38.954;-9.002;2022-07-21T01:49:34;100711.03;;;20.85;75.99
50434;BME280;36361;38.954;-9.002;2022-07-21T01:50:35;100703.81;;;20.84;76.20
50434;BME280;36361;38.954;-9.002;2022-07-21T01:51:36;100700.50;;;20.82;76.44
50434;BME280;36361;38.954;-9.002;2022-07-21T01:52:37;100697.25;;;20.64;77.25
50434;BME280;36361;38.954;-9.002;2022-07-21T01:53:38;100697.78;;;20.66;77.84
50434;BME280;36361;38.954;-9.002;2022-07-21T01:54:39;100700.25;;;20.78;77.43
50434;BME280;36361;38.954;-9.002;2022-07-21T01:55:40;100694.69;;;20.88;76.90
50434;BME280;36361;38.954;-9.002;2022-07-21T01:56:40;100687.22;;;20.84;77.17
50434;BME280;36361;38.954;-9.002;2022-07-21T01:57:41;100690.78;;;20.89;77.15
50434;BME280;36361;38.954;-9.002;2022-07-21T01:58:42;100692.75;;;20.89;77.32
50434;BME280;36361;38.954;-9.002;2022-07-21T01:59:43;100698.81;;;20.91;77.35
50434;BME280;36361;38.954;-9.002;2022-07-21T02:00:44;100690.28;;;20.82;77.95
50434;BME280;36361;38.954;-9.002;2022-07-21T02:01:45;100692.25;;;20.77;78.31
50434;BME280;36361;38.954;-9.002;2022-07-21T02:02:45;100697.19;;;20.80;78.31
50434;BME280;36361;38.954;-9.002;2022-07-21T02:03:47;100697.44;;;20.83;78.32
50434;BME280;36361;38.954;-9.002;2022-07-21T02:04:48;100693.03;;;20.87;78.25
50434;BME280;36361;38.954;-9.002;2022-07-21T02:05:49;100696.72;;;20.62;79.13
50434;BME280;36361;38.954;-9.002;2022-07-21T02:06:51;100701.13;;;20.68;79.11
50434;BME280;36361;38.954;-9.002;2022-07-21T02:07:51;100700.22;;;20.83;78.57
50434;BME280;36361;38.954;-9.002;2022-07-21T02:08:52;100697.44;;;20.83;78.32
50434;BME280;36361;38.954;-9.002;2022-07-21T02:09:53;100692.81;;;20.68;78.41
50434;BME280;36361;38.954;-9.002;2022-07-21T02:10:54;100697.25;;;20.69;78.55
50434;BME280;36361;38.954;-9.002;2022-07-21T02:11:55;100693.94;;;20.67;78.68
50434;BME280;36361;38.954;-9.002;2022-07-21T02:12:56;100694.81;;;20.53;79.11
50434;BME280;36361;38.954;-9.002;2022-07-21T02:13:56;100688.94;;;20.64;78.96
50434;BME280;36361;38.954;-9.002;2022-07-21T02:14:57;100691.38;;;20.81;78.47
50434;BME280;36361;38.954;-9.002;2022-07-21T02:15:58;100690.25;;;20.87;77.81
50434;BME280;36361;38.954;-9.002;2022-07-21T02:16:58;100691.63;;;20.95;77.71
50434;BME280;36361;38.954;-9.002;2022-07-21T02:17:59;100686.91;;;20.90;77.87
50434;BME280;36361;38.954;-9.002;2022-07-21T02:19:00;100685.59;;;20.72;78.77
50434;BME280;36361;38.954;-9.002;2022-07-21T02:20:01;100683.31;;;20.90;78.21
50434;BME280;36361;38.954;-9.002;2022-07-21T02:21:02;100689.44;;;20.82;78.68
50434;BME280;36361;38.954;-9.002;2022-07-21T02:22:03;100680.59;;;20.80;78.93
50434;BME280;36361;38.954;-9.002;2022-07-21T02:23:04;100687.25;;;20.73;79.16
50434;BME280;36361;38.954;-9.002;2022-07-21T02:24:05;100677.56;;;20.81;78.94
50434;BME280;36361;38.954;-9.002;2022-07-21T02:25:07;100680.03;;;20.88;78.84
50434;BME280;36361;38.954;-9.002;2022-07-21T02:26:07;100682.25;;;20.81;79.19
50434;BME280;36361;38.954;-9.002;2022-07-21T02:27:08;100676.19;;;20.79;79.43
50434;BME280;36361;38.954;-9.002;2022-07-21T02:28:09;100682.56;;;20.74;79.76
50434;BME280;36361;38.954;-9.002;2022-07-21T02:29:10;100669.59;;;20.64;80.20
50434;BME280;36361;38.954;-9.002;2022-07-21T02:30:13;100673.44;;;20.79;79.49
50434;BME280;36361;38.954;-9.002;2022-07-21T02:31:14;100673.47;;;20.68;79.67
50434;BME280;36361;38.954;-9.002;2022-07-21T02:32:14;100668.81;;;20.59;79.77
50434;BME280;36361;38.954;-9.002;2022-07-21T02:33:15;100672.94;;;20.61;79.62
50434;BME280;36361;38.954;-9.002;2022-07-21T02:34:16;100669.06;;;20.62;79.66
50434;BME280;36361;38.954;-9.002;2022-07-21T02:35:17;100666.88;;;20.59;79.59
50434;BME280;36361;38.954;-9.002;2022-07-21T02:36:18;100663.53;;;20.62;79.67
50434;BME280;36361;38.954;-9.002;2022-07-21T02:37:19;100662.94;;;20.65;79.34
50434;BME280;36361;38.954;-9.002;2022-07-21T02:38:19;100662.75;;;20.52;80.12
50434;BME280;36361;38.954;-9.002;2022-07-21T02:39:20;100667.41;;;20.61;79.96
50434;BME280;36361;38.954;-9.002;2022-07-21T02:40:21;100662.16;;;20.60;80.38
50434;BME280;36361;38.954;-9.002;2022-07-21T02:41:22;100665.75;;;20.60;80.54
50434;BME280;36361;38.954;-9.002;2022-07-21T02:42:23;100661.88;;;20.61;80.72
50434;BME280;36361;38.954;-9.002;2022-07-21T02:43:24;100661.34;;;20.59;80.42
50434;BME280;36361;38.954;-9.002;2022-07-21T02:44:25;100658.56;;;20.59;80.20
50434;BME280;36361;38.954;-9.002;2022-07-21T02:45:26;100659.13;;;20.56;80.42
50434;BME280;36361;38.954;-9.002;2022-07-21T02:46:26;100651.34;;;20.63;79.93
50434;BME280;36361;38.954;-9.002;2022-07-21T02:47:27;100651.88;;;20.70;79.58
50434;BME280;36361;38.954;-9.002;2022-07-21T02:48:28;100660.72;;;20.72;79.53
50434;BME280;36361;38.954;-9.002;2022-07-21T02:49:28;100660.75;;;20.67;79.90
50434;BME280;36361;38.954;-9.002;2022-07-21T02:50:31;100664.59;;;20.66;79.86
50434;BME280;36361;38.954;-9.002;2022-07-21T02:51:32;100668.53;;;20.60;80.10
50434;BME280;36361;38.954;-9.002;2022-07-21T02:52:33;100663.28;;;20.59;80.10
50434;BME280;36361;38.954;-9.002;2022-07-21T02:53:33;100662.44;;;20.58;80.07
50434;BME280;36361;38.954;-9.002;2022-07-21T02:54:34;100665.22;;;20.58;79.93
50434;BME280;36361;38.954;-9.002;2022-07-21T02:55:35;100660.78;;;20.57;80.06
50434;BME280;36361;38.954;-9.002;2022-07-21T02:56:36;100664.16;;;20.34;81.02
50434;BME280;36361;38.954;-9.002;2022-07-21T02:57:37;100667.44;;;20.46;80.58
50434;BME280;36361;38.954;-9.002;2022-07-21T02:58:38;100662.22;;;20.50;80.55
50434;BME280;36361;38.954;-9.002;2022-07-21T02:59:38;100672.19;;;20.30;81.04
50434;BME280;36361;38.954;-9.002;2022-07-21T03:00:42;100664.72;;;20.26;81.54
50434;BME280;36361;38.954;-9.002;2022-07-21T03:01:43;100669.69;;;20.44;80.80
50434;BME280;36361;38.954;-9.002;2022-07-21T03:02:44;100673.53;;;20.38;80.86
50434;BME280;36361;38.954;-9.002;2022-07-21T03:03:44;100671.03;;;20.41;80.62
50434;BME280;36361;38.954;-9.002;2022-07-21T03:04:45;100671.88;;;20.47;80.49
50434;BME280;36361;38.954;-9.002;2022-07-21T03:05:46;100672.44;;;20.44;80.64
50434;BME280;36361;38.954;-9.002;2022-07-21T03:06:46;100671.91;;;20.27;81.01
50434;BME280;36361;38.954;-9.002;2022-07-21T03:07:47;100666.34;;;20.37;80.75
50434;BME280;36361;38.954;-9.002;2022-07-21T03:08:48;100668.00;;;20.53;80.23
50434;BME280;36361;38.954;-9.002;2022-07-21T03:09:48;100671.91;;;20.27;81.30
50434;BME280;36361;38.954;-9.002;2022-07-21T03:10:49;100664.69;;;20.36;81.28
50434;BME280;36361;38.954;-9.002;2022-07-21T03:11:50;100668.03;;;20.28;82.25
50434;BME280;36361;38.954;-9.002;2022-07-21T03:12:51;100660.28;;;20.40;81.66
50434;BME280;36361;38.954;-9.002;2022-07-21T03:13:51;100667.44;;;20.51;81.47
50434;BME280;36361;38.954;-9.002;2022-07-21T03:14:52;100664.66;;;20.56;81.01
50434;BME280;36361;38.954;-9.002;2022-07-21T03:15:53;100657.19;;;20.57;81.11
50434;BME280;36361;38.954;-9.002;2022-07-21T03:16:53;100661.25;;;20.85;80.11
50434;BME280;36361;38.954;-9.002;2022-07-21T03:17:55;100664.59;;;20.77;80.23
50434;BME280;36361;38.954;-9.002;2022-07-21T03:18:56;100664.22;;;20.93;79.67
50434;BME280;36361;38.954;-9.002;2022-07-21T03:19:57;100666.72;;;20.90;79.51
50434;BME280;36361;38.954;-9.002;2022-07-21T03:20:58;100666.13;;;20.98;79.04
50434;BME280;36361;38.954;-9.002;2022-07-21T03:21:58;100667.53;;;20.95;79.28
50434;BME280;36361;38.954;-9.002;2022-07-21T03:22:59;100658.25;;;21.20;78.29
50434;BME280;36361;38.954;-9.002;2022-07-21T03:24:00;100657.78;;;21.08;79.14
50434;BME280;36361;38.954;-9.002;2022-07-21T03:25:01;100656.97;;;21.02;79.63
50434;BME280;36361;38.954;-9.002;2022-07-21T03:26:02;100651.41;;;21.13;79.14
50434;BME280;36361;38.954;-9.002;2022-07-21T03:27:03;100652.72;;;21.20;79.00
50434;BME280;36361;38.954;-9.002;2022-07-21T03:28:03;100654.22;;;21.47;77.55
50434;BME280;36361;38.954;-9.002;2022-07-21T03:29:07;100648.81;;;21.32;78.37
50434;BME280;36361;38.954;-9.002;2022-07-21T03:30:10;100650.75;;;21.26;78.96
50434;BME280;36361;38.954;-9.002;2022-07-21T03:31:11;100649.28;;;21.39;78.47
50434;BME280;36361;38.954;-9.002;2022-07-21T03:32:11;100646.72;;;21.47;77.80
50434;BME280;36361;38.954;-9.002;2022-07-21T03:33:12;100645.47;;;21.29;78.71
50434;BME280;36361;38.954;-9.002;2022-07-21T03:34:13;100648.25;;;21.29;78.39
50434;BME280;36361;38.954;-9.002;2022-07-21T03:35:14;100651.63;;;21.21;78.82
50434;BME280;36361;38.954;-9.002;2022-07-21T03:36:15;100644.97;;;21.17;78.55
50434;BME280;36361;38.954;-9.002;2022-07-21T03:37:16;100645.53;;;21.19;78.49
50434;BME280;36361;38.954;-9.002;2022-07-21T03:38:16;100649.84;;;20.91;79.35
50434;BME280;36361;38.954;-9.002;2022-07-21T03:39:20;100649.84;;;20.91;79.46
50434;BME280;36361;38.954;-9.002;2022-07-21T03:40:22;100648.41;;;21.04;78.66
50434;BME280;36361;38.954;-9.002;2022-07-21T03:41:24;100645.72;;;20.89;79.22
50434;BME280;36361;38.954;-9.002;2022-07-21T03:42:25;100638.47;;;20.98;78.85
50434;BME280;36361;38.954;-9.002;2022-07-21T03:43:25;100641.69;;;21.10;78.23
50434;BME280;36361;38.954;-9.002;2022-07-21T03:44:26;100653.94;;;21.04;78.40
50434;BME280;36361;38.954;-9.002;2022-07-21T03:45:27;100650.34;;;20.98;78.58
50434;BME280;36361;38.954;-9.002;2022-07-21T03:46:30;100645.94;;;20.97;78.56
50434;BME280;36361;38.954;-9.002;2022-07-21T03:47:31;100652.31;;;20.93;78.69
50434;BME280;36361;38.954;-9.002;2022-07-21T03:48:32;100642.41;;;20.82;79.29
50434;BME280;36361;38.954;-9.002;2022-07-21T03:49:32;100645.25;;;20.71;79.69
50434;BME280;36361;38.954;-9.002;2022-07-21T03:50:35;100650.19;;;20.74;79.44
50434;BME280;36361;38.954;-9.002;2022-07-21T03:51:36;100654.00;;;20.94;78.97
50434;BME280;36361;38.954;-9.002;2022-07-21T03:52:37;100664.22;;;20.93;78.91
50434;BME280;36361;38.954;-9.002;2022-07-21T03:53:38;100661.47;;;20.88;79.31
50434;BME280;36361;38.954;-9.002;2022-07-21T03:54:39;100666.72;;;20.95;79.05
50434;BME280;36361;38.954;-9.002;2022-07-21T03:55:39;100663.66;;;20.96;78.88
50434;BME280;36361;38.954;-9.002;2022-07-21T03:56:40;100649.06;;;20.81;79.85
50434;BME280;36361;38.954;-9.002;2022-07-21T03:57:46;100649.84;;;20.91;79.71
50434;BME280;36361;38.954;-9.002;2022-07-21T03:58:47;100655.06;;;20.98;79.29
50434;BME280;36361;38.954;-9.002;2022-07-21T03:59:48;100655.34;;;20.96;79.54
50434;BME280;36361;38.954;-9.002;2022-07-21T04:00:49;100659.91;;;21.26;78.03
50434;BME280;36361;38.954;-9.002;2022-07-21T04:01:49;100651.94;;;21.15;78.89
50434;BME280;36361;38.954;-9.002;2022-07-21T04:02:50;100657.13;;;21.26;78.26
50434;BME280;36361;38.954;-9.002;2022-07-21T04:03:51;100650.50;;;21.22;78.61
50434;BME280;36361;38.954;-9.002;2022-07-21T04:04:51;100652.69;;;21.25;78.44
50434;BME280;36361;38.954;-9.002;2022-07-21T04:05:52;100659.81;;;21.37;78.38
50434;BME280;36361;38.954;-9.002;2022-07-21T04:06:53;100662.66;;;21.32;78.99
50434;BME280;36361;38.954;-9.002;2022-07-21T04:07:54;100657.75;;;21.13;79.23
50434;BME280;36361;38.954;-9.002;2022-07-21T04:08:54;100664.50;;;20.92;81.08
50434;BME280;36361;38.954;-9.002;2022-07-21T04:09:55;100665.66;;;20.81;81.78
50434;BME280;36361;38.954;-9.002;2022-07-21T04:10:56;100660.06;;;20.91;81.78
50434;BME280;36361;38.954;-9.002;2022-07-21T04:11:58;100670.75;;;21.13;80.43
50434;BME280;36361;38.954;-9.002;2022-07-21T04:13:01;100668.31;;;21.06;80.94
50434;BME280;36361;38.954;-9.002;2022-07-21T04:14:02;100674.97;;;21.05;81.05
50434;BME280;36361;38.954;-9.002;2022-07-21T04:15:05;100665.06;;;20.94;81.83
50434;BME280;36361;38.954;-9.002;2022-07-21T04:16:06;100668.19;;;20.72;82.89
50434;BME280;36361;38.954;-9.002;2022-07-21T04:17:07;100670.38;;;20.80;82.24
50434;BME280;36361;38.954;-9.002;2022-07-21T04:18:11;100673.44;;;20.73;82.87
50434;BME280;36361;38.954;-9.002;2022-07-21T04:19:12;100676.19;;;20.79;82.94
50434;BME280;36361;38.954;-9.002;2022-07-21T04:20:13;100665.81;;;21.05;80.99
50434;BME280;36361;38.954;-9.002;2022-07-21T04:21:14;100670.47;;;21.14;81.24
50434;BME280;36361;38.954;-9.002;2022-07-21T04:22:15;100670.84;;;20.97;81.90
50434;BME280;36361;38.954;-9.002;2022-07-21T04:23:16;100677.72;;;21.05;81.53
50434;BME280;36361;38.954;-9.002;2022-07-21T04:24:17;100676.63;;;21.01;81.89
50434;BME280;36361;38.954;-9.002;2022-07-21T04:25:18;100679.47;;;20.86;82.83
50434;BME280;36361;38.954;-9.002;2022-07-21T04:26:19;100677.25;;;20.88;82.27
50434;BME280;36361;38.954;-9.002;2022-07-21T04:27:20;100685.66;;;20.62;84.22
50434;BME280;36361;38.954;-9.002;2022-07-21T04:28:21;100679.59;;;20.60;84.26
50434;BME280;36361;38.954;-9.002;2022-07-21T04:29:21;100679.63;;;20.45;85.16
50434;BME280;36361;38.954;-9.002;2022-07-21T04:30:23;100678.72;;;20.65;84.08
50434;BME280;36361;38.954;-9.002;2022-07-21T04:31:23;100685.88;;;20.76;83.50
50434;BME280;36361;38.954;-9.002;2022-07-21T04:32:24;100682.09;;;20.52;84.81
50434;BME280;36361;38.954;-9.002;2022-07-21T04:33:25;100684.25;;;20.65;84.65
50434;BME280;36361;38.954;-9.002;2022-07-21T04:34:26;100690.06;;;20.68;84.15
50434;BME280;36361;38.954;-9.002;2022-07-21T04:35:27;100682.88;;;20.57;84.80
50434;BME280;36361;38.954;-9.002;2022-07-21T04:36:28;100688.13;;;20.64;84.78
50434;BME280;36361;38.954;-9.002;2022-07-21T04:37:29;100698.91;;;20.70;84.67
50434;BME280;36361;38.954;-9.002;2022-07-21T04:38:30;100695.84;;;20.72;84.40
50434;BME280;36361;38.954;-9.002;2022-07-21T04:39:36;100698.91;;;20.70;84.21
50434;BME280;36361;38.954;-9.002;2022-07-21T04:40:37;100695.91;;;20.52;85.13
50434;BME280;36361;38.954;-9.002;2022-07-21T04:41:38;100705.31;;;20.40;86.11
50434;BME280;36361;38.954;-9.002;2022-07-21T04:42:39;100695.03;;;20.71;84.19
50434;BME280;36361;38.954;-9.002;2022-07-21T04:43:40;100701.19;;;20.33;86.22
50434;BME280;36361;38.954;-9.002;2022-07-21T04:44:41;100705.06;;;20.27;86.68
50434;BME280;36361;38.954;-9.002;2022-07-21T04:45:42;100708.94;;;20.26;86.85
50434;BME280;36361;38.954;-9.002;2022-07-21T04:46:46;100706.44;;;20.34;86.60
50434;BME280;36361;38.954;-9.002;2022-07-21T04:47:48;100708.09;;;20.25;87.05
50434;BME280;36361;38.954;-9.002;2022-07-21T04:48:51;100703.44;;;20.15;87.67
50434;BME280;36361;38.954;-9.002;2022-07-21T04:49:55;100707.31;;;20.14;87.95
50434;BME280;36361;38.954;-9.002;2022-07-21T04:50:55;100700.41;;;20.07;88.49
50434;BME280;36361;38.954;-9.002;2022-07-21T04:51:56;100712.84;;;19.94;89.33
50434;BME280;36361;38.954;-9.002;2022-07-21T04:52:57;100706.47;;;20.09;88.76
50434;BME280;36361;38.954;-9.002;2022-07-21T04:53:59;100706.19;;;20.15;88.23
50434;BME280;36361;38.954;-9.002;2022-07-21T04:55:03;100706.16;;;20.26;87.88
50434;BME280;36361;38.954;-9.002;2022-07-21T04:56:04;100703.69;;;20.24;88.02
50434;BME280;36361;38.954;-9.002;2022-07-21T04:57:05;100703.16;;;20.17;88.22
50434;BME280;36361;38.954;-9.002;2022-07-21T04:58:06;100712.00;;;20.14;88.25
50434;BME280;36361;38.954;-9.002;2022-07-21T04:59:08;100705.63;;;20.08;88.82
50434;BME280;36361;38.954;-9.002;2022-07-21T05:00:11;100707.56;;;20.08;88.94
50434;BME280;36361;38.954;-9.002;2022-07-21T05:01:12;100702.31;;;20.01;89.20
50434;BME280;36361;38.954;-9.002;2022-07-21T05:02:13;100707.31;;;20.04;89.27
50434;BME280;36361;38.954;-9.002;2022-07-21T05:03:14;100705.66;;;20.03;89.38
50434;BME280;36361;38.954;-9.002;2022-07-21T05:04:15;100706.19;;;20.00;89.82
50434;BME280;36361;38.954;-9.002;2022-07-21T05:05:16;100713.69;;;19.95;90.48
50434;BME280;36361;38.954;-9.002;2022-07-21T05:06:16;100713.41;;;19.96;90.60
50434;BME280;36361;38.954;-9.002;2022-07-21T05:07:17;100717.28;;;19.85;91.13
50434;BME280;36361;38.954;-9.002;2022-07-21T05:08:18;100710.34;;;19.87;91.18
50434;BME280;36361;38.954;-9.002;2022-07-21T05:09:18;100713.94;;;19.57;92.94
50434;BME280;36361;38.954;-9.002;2022-07-21T05:10:19;100720.84;;;19.75;92.29
50434;BME280;36361;38.954;-9.002;2022-07-21T05:11:21;100712.00;;;19.73;92.55
50434;BME280;36361;38.954;-9.002;2022-07-21T05:12:22;100714.22;;;19.86;91.98
50434;BME280;36361;38.954;-9.002;2022-07-21T05:13:29;100707.88;;;19.86;92.01
50434;BME280;36361;38.954;-9.002;2022-07-21T05:14:29;100713.94;;;19.78;92.40
50434;BME280;36361;38.954;-9.002;2022-07-21T05:15:30;100711.16;;;19.83;92.53
50434;BME280;36361;38.954;-9.002;2022-07-21T05:16:31;100712.81;;;19.84;92.56